sensor_id;sensor_type;location;lat;lon;timestamp;P1;durP1;ratioP1;P2;durP2;ratioP2
54372;SDS011;40271;48.798;10.178;2022-07-29T00:00:41;9.60;;;5.85;;
54372;SDS011;40271;48.798;10.178;2022-07-29T00:03:09;8.50;;;5.75;;
54372;SDS011;40271;48.798;10.178;2022-07-29T00:05:35;5.95;;;5.10;;
54372;SDS011;40271;48.798;10.178;2022-07-29T00:08:01;8.80;;;5.50;;
54372;SDS011;40271;48.798;10.178;2022-07-29T00:10:27;6.85;;;5.20;;
54372;SDS011;40271;48.798;10.178;2022-07-29T00:12:53;5.82;;;4.95;;
54372;SDS011;40271;48.798;10.178;2022-07-29T00:15:19;7.47;;;5.10;;
54372;SDS011;40271;48.798;10.178;2022-07-29T00:17:45;7.25;;;4.95;;
54372;SDS011;40271;48.798;10.178;2022-07-29T00:20:11;6.57;;;5.20;;
54372;SDS011;40271;48.798;10.178;2022-07-29T00:22:38;7.25;;;4.75;;
54372;SDS011;40271;48.798;10.178;2022-07-29T00:25:05;5.25;;;4.30;;
54372;SDS011;40271;48.798;10.178;2022-07-29T00:27:31;6.72;;;4.47;;
54372;SDS011;40271;48.798;10.178;2022-07-29T00:29:57;8.05;;;4.78;;
54372;SDS011;40271;48.798;10.178;2022-07-29T00:32:23;6.97;;;4.38;;
54372;SDS011;40271;48.798;10.178;2022-07-29T00:34:49;6.65;;;4.88;;
54372;SDS011;40271;48.798;10.178;2022-07-29T00:37:34;7.63;;;4.72;;
54372;SDS011;40271;48.798;10.178;2022-07-29T00:40:00;6.85;;;4.50;;
54372;SDS011;40271;48.798;10.178;2022-07-29T00:42:26;6.22;;;4.32;;
54372;SDS011;40271;48.798;10.178;2022-07-29T00:44:52;6.18;;;4.43;;
54372;SDS011;40271;48.798;10.178;2022-07-29T00:47:18;9.48;;;5.00;;
54372;SDS011;40271;48.798;10.178;2022-07-29T00:49:44;6.55;;;4.75;;
54372;SDS011;40271;48.798;10.178;2022-07-29T00:52:11;6.03;;;4.10;;
54372;SDS011;40271;48.798;10.178;2022-07-29T00:54:37;6.43;;;3.90;;
54372;SDS011;40271;48.798;10.178;2022-07-29T00:57:04;4.15;;;3.70;;
54372;SDS011;40271;48.798;10.178;2022-07-29T00:59:31;5.70;;;4.20;;
54372;SDS011;40271;48.798;10.178;2022-07-29T01:01:57;5.85;;;4.00;;
54372;SDS011;40271;48.798;10.178;2022-07-29T01:04:23;5.03;;;4.25;;
54372;SDS011;40271;48.798;10.178;2022-07-29T01:06:49;5.82;;;4.28;;
54372;SDS011;40271;48.798;10.178;2022-07-29T01:09:16;5.40;;;4.13;;
54372;SDS011;40271;48.798;10.178;2022-07-29T01:11:44;4.90;;;4.20;;
54372;SDS011;40271;48.798;10.178;2022-07-29T01:14:12;6.70;;;4.40;;
54372;SDS011;40271;48.798;10.178;2022-07-29T01:16:46;4.50;;;4.00;;
54372;SDS011;40271;48.798;10.178;2022-07-29T01:19:26;5.88;;;4.20;;
54372;SDS011;40271;48.798;10.178;2022-07-29T01:21:59;6.03;;;4.60;;
54372;SDS011;40271;48.798;10.178;2022-07-29T01:24:39;5.78;;;4.28;;
54372;SDS011;40271;48.798;10.178;2022-07-29T01:30:01;5.43;;;4.32;;
54372;SDS011;40271;48.798;10.178;2022-07-29T01:32:29;5.80;;;4.22;;
54372;SDS011;40271;48.798;10.178;2022-07-29T01:38:07;5.53;;;4.63;;
54372;SDS011;40271;48.798;10.178;2022-07-29T01:40:29;5.30;;;4.18;;
54372;SDS011;40271;48.798;10.178;2022-07-29T01:42:54;5.68;;;4.57;;
54372;SDS011;40271;48.798;10.178;2022-07-29T01:45:23;4.88;;;4.38;;
54372;SDS011;40271;48.798;10.178;2022-07-29T01:47:56;5.15;;;4.20;;
54372;SDS011;40271;48.798;10.178;2022-07-29T01:50:26;6.30;;;4.55;;
54372;SDS011;40271;48.798;10.178;2022-07-29T01:53:02;4.72;;;3.92;;
54372;SDS011;40271;48.798;10.178;2022-07-29T01:55:29;5.15;;;3.83;;
54372;SDS011;40271;48.798;10.178;2022-07-29T01:57:57;6.07;;;3.70;;
54372;SDS011;40271;48.798;10.178;2022-07-29T02:00:24;5.53;;;3.97;;
54372;SDS011;40271;48.798;10.178;2022-07-29T02:02:50;5.22;;;3.50;;
54372;SDS011;40271;48.798;10.178;2022-07-29T02:05:17;4.57;;;3.72;;
54372;SDS011;40271;48.798;10.178;2022-07-29T02:07:44;4.70;;;3.65;;
54372;SDS011;40271;48.798;10.178;2022-07-29T02:10:12;5.60;;;3.75;;
54372;SDS011;40271;48.798;10.178;2022-07-29T02:12:39;4.65;;;3.50;;
54372;SDS011;40271;48.798;10.178;2022-07-29T02:15:05;5.47;;;3.35;;
54372;SDS011;40271;48.798;10.178;2022-07-29T02:17:42;5.63;;;4.03;;
54372;SDS011;40271;48.798;10.178;2022-07-29T02:20:09;5.03;;;3.50;;
54372;SDS011;40271;48.798;10.178;2022-07-29T02:22:37;5.18;;;3.40;;
54372;SDS011;40271;48.798;10.178;2022-07-29T02:25:04;4.97;;;3.47;;
54372;SDS011;40271;48.798;10.178;2022-07-29T02:27:30;4.10;;;3.40;;
54372;SDS011;40271;48.798;10.178;2022-07-29T02:29:57;3.80;;;3.30;;
54372;SDS011;40271;48.798;10.178;2022-07-29T02:32:24;4.40;;;3.40;;
54372;SDS011;40271;48.798;10.178;2022-07-29T02:34:52;3.67;;;3.13;;
54372;SDS011;40271;48.798;10.178;2022-07-29T02:37:18;4.63;;;3.42;;
54372;SDS011;40271;48.798;10.178;2022-07-29T02:39:45;4.05;;;3.42;;
54372;SDS011;40271;48.798;10.178;2022-07-29T02:42:14;3.83;;;3.33;;
54372;SDS011;40271;48.798;10.178;2022-07-29T02:44:41;3.38;;;3.08;;
54372;SDS011;40271;48.798;10.178;2022-07-29T02:55:15;4.70;;;3.40;;
54372;SDS011;40271;48.798;10.178;2022-07-29T02:57:43;3.80;;;3.22;;
54372;SDS011;40271;48.798;10.178;2022-07-29T03:00:10;3.92;;;3.42;;
54372;SDS011;40271;48.798;10.178;2022-07-29T03:02:37;4.05;;;3.40;;
54372;SDS011;40271;48.798;10.178;2022-07-29T03:05:04;4.43;;;3.42;;
54372;SDS011;40271;48.798;10.178;2022-07-29T03:07:31;4.03;;;3.40;;
54372;SDS011;40271;48.798;10.178;2022-07-29T03:09:58;4.10;;;3.28;;
54372;SDS011;40271;48.798;10.178;2022-07-29T03:12:24;6.90;;;3.70;;
54372;SDS011;40271;48.798;10.178;2022-07-29T03:14:51;3.50;;;3.03;;
54372;SDS011;40271;48.798;10.178;2022-07-29T03:17:18;3.60;;;3.15;;
54372;SDS011;40271;48.798;10.178;2022-07-29T03:19:44;3.70;;;3.15;;
54372;SDS011;40271;48.798;10.178;2022-07-29T03:22:10;3.97;;;3.28;;
54372;SDS011;40271;48.798;10.178;2022-07-29T03:24:36;3.17;;;2.67;;
54372;SDS011;40271;48.798;10.178;2022-07-29T03:27:03;4.60;;;3.50;;
54372;SDS011;40271;48.798;10.178;2022-07-29T03:29:30;4.32;;;3.30;;
54372;SDS011;40271;48.798;10.178;2022-07-29T03:31:56;4.72;;;3.20;;
54372;SDS011;40271;48.798;10.178;2022-07-29T03:34:22;3.13;;;2.80;;
54372;SDS011;40271;48.798;10.178;2022-07-29T03:36:48;3.88;;;3.30;;
54372;SDS011;40271;48.798;10.178;2022-07-29T03:39:15;4.30;;;3.30;;
54372;SDS011;40271;48.798;10.178;2022-07-29T03:41:42;4.38;;;3.35;;
54372;SDS011;40271;48.798;10.178;2022-07-29T03:44:10;3.35;;;2.90;;
54372;SDS011;40271;48.798;10.178;2022-07-29T03:46:36;4.93;;;3.30;;
54372;SDS011;40271;48.798;10.178;2022-07-29T03:49:03;4.65;;;3.60;;
54372;SDS011;40271;48.798;10.178;2022-07-29T03:51:29;4.57;;;3.53;;
54372;SDS011;40271;48.798;10.178;2022-07-29T03:53:56;4.10;;;3.15;;
54372;SDS011;40271;48.798;10.178;2022-07-29T03:56:22;3.90;;;3.30;;
54372;SDS011;40271;48.798;10.178;2022-07-29T03:58:52;5.47;;;3.90;;
54372;SDS011;40271;48.798;10.178;2022-07-29T04:01:18;3.75;;;3.38;;
54372;SDS011;40271;48.798;10.178;2022-07-29T04:03:45;4.53;;;3.33;;
54372;SDS011;40271;48.798;10.178;2022-07-29T04:06:11;3.88;;;3.33;;
54372;SDS011;40271;48.798;10.178;2022-07-29T04:08:37;5.38;;;3.33;;
54372;SDS011;40271;48.798;10.178;2022-07-29T04:11:04;3.72;;;2.78;;
54372;SDS011;40271;48.798;10.178;2022-07-29T04:13:30;3.53;;;3.22;;
54372;SDS011;40271;48.798;10.178;2022-07-29T04:15:56;5.43;;;3.78;;
54372;SDS011;40271;48.798;10.178;2022-07-29T04:18:23;4.85;;;3.45;;
54372;SDS011;40271;48.798;10.178;2022-07-29T04:20:49;4.05;;;3.40;;
54372;SDS011;40271;48.798;10.178;2022-07-29T04:23:15;4.65;;;3.67;;
54372;SDS011;40271;48.798;10.178;2022-07-29T04:25:41;4.38;;;3.05;;
54372;SDS011;40271;48.798;10.178;2022-07-29T04:28:07;3.90;;;3.00;;
54372;SDS011;40271;48.798;10.178;2022-07-29T04:30:34;3.72;;;3.33;;
54372;SDS011;40271;48.798;10.178;2022-07-29T04:33:01;4.25;;;3.58;;
54372;SDS011;40271;48.798;10.178;2022-07-29T04:35:27;4.63;;;3.47;;
54372;SDS011;40271;48.798;10.178;2022-07-29T04:37:53;5.70;;;3.70;;
54372;SDS011;40271;48.798;10.178;2022-07-29T04:40:20;5.60;;;3.30;;
54372;SDS011;40271;48.798;10.178;2022-07-29T04:42:46;5.20;;;3.70;;
54372;SDS011;40271;48.798;10.178;2022-07-29T04:45:12;7.00;;;4.20;;
54372;SDS011;40271;48.798;10.178;2022-07-29T04:47:38;3.95;;;3.38;;
54372;SDS011;40271;48.798;10.178;2022-07-29T04:50:05;5.72;;;3.47;;
54372;SDS011;40271;48.798;10.178;2022-07-29T04:52:32;5.15;;;3.78;;
54372;SDS011;40271;48.798;10.178;2022-07-29T04:54:59;8.32;;;4.25;;
54372;SDS011;40271;48.798;10.178;2022-07-29T04:57:25;6.30;;;4.05;;
54372;SDS011;40271;48.798;10.178;2022-07-29T04:59:51;7.22;;;4.10;;
54372;SDS011;40271;48.798;10.178;2022-07-29T05:02:17;6.75;;;3.97;;
54372;SDS011;40271;48.798;10.178;2022-07-29T05:04:43;5.10;;;3.97;;
54372;SDS011;40271;48.798;10.178;2022-07-29T05:07:09;6.80;;;4.50;;
54372;SDS011;40271;48.798;10.178;2022-07-29T05:09:35;7.82;;;4.45;;
54372;SDS011;40271;48.798;10.178;2022-07-29T05:12:01;6.20;;;4.47;;
54372;SDS011;40271;48.798;10.178;2022-07-29T05:14:27;7.63;;;4.60;;
54372;SDS011;40271;48.798;10.178;2022-07-29T05:16:53;5.30;;;4.68;;
54372;SDS011;40271;48.798;10.178;2022-07-29T05:19:21;10.02;;;4.63;;
54372;SDS011;40271;48.798;10.178;2022-07-29T05:21:48;7.80;;;4.72;;
54372;SDS011;40271;48.798;10.178;2022-07-29T05:24:14;6.22;;;5.18;;
54372;SDS011;40271;48.798;10.178;2022-07-29T05:26:41;6.03;;;4.70;;
54372;SDS011;40271;48.798;10.178;2022-07-29T05:29:07;9.02;;;4.63;;
54372;SDS011;40271;48.798;10.178;2022-07-29T05:31:33;6.30;;;4.80;;
54372;SDS011;40271;48.798;10.178;2022-07-29T05:33:59;6.35;;;4.78;;
54372;SDS011;40271;48.798;10.178;2022-07-29T05:36:25;9.57;;;4.97;;
54372;SDS011;40271;48.798;10.178;2022-07-29T05:38:52;8.18;;;5.13;;
54372;SDS011;40271;48.798;10.178;2022-07-29T05:41:18;8.05;;;5.25;;
54372;SDS011;40271;48.798;10.178;2022-07-29T05:43:44;8.25;;;5.15;;
54372;SDS011;40271;48.798;10.178;2022-07-29T05:46:10;10.98;;;6.15;;
54372;SDS011;40271;48.798;10.178;2022-07-29T05:48:36;11.88;;;5.60;;
54372;SDS011;40271;48.798;10.178;2022-07-29T05:51:03;12.07;;;6.03;;
54372;SDS011;40271;48.798;10.178;2022-07-29T05:53:30;9.52;;;5.70;;
54372;SDS011;40271;48.798;10.178;2022-07-29T05:55:56;9.20;;;5.80;;
54372;SDS011;40271;48.798;10.178;2022-07-29T05:58:22;8.07;;;5.63;;
54372;SDS011;40271;48.798;10.178;2022-07-29T06:00:48;8.40;;;5.90;;
54372;SDS011;40271;48.798;10.178;2022-07-29T06:03:14;8.52;;;5.47;;
54372;SDS011;40271;48.798;10.178;2022-07-29T06:05:40;7.22;;;5.50;;
54372;SDS011;40271;48.798;10.178;2022-07-29T06:08:06;6.85;;;5.63;;
54372;SDS011;40271;48.798;10.178;2022-07-29T06:10:34;8.38;;;5.68;;
54372;SDS011;40271;48.798;10.178;2022-07-29T06:13:00;8.32;;;5.63;;
54372;SDS011;40271;48.798;10.178;2022-07-29T06:15:26;8.32;;;5.78;;
54372;SDS011;40271;48.798;10.178;2022-07-29T06:17:52;7.43;;;5.82;;
54372;SDS011;40271;48.798;10.178;2022-07-29T06:20:18;7.05;;;5.60;;
54372;SDS011;40271;48.798;10.178;2022-07-29T06:22:44;8.57;;;6.10;;
54372;SDS011;40271;48.798;10.178;2022-07-29T06:25:10;7.70;;;6.00;;
54372;SDS011;40271;48.798;10.178;2022-07-29T06:27:36;9.07;;;6.25;;
54372;SDS011;40271;48.798;10.178;2022-07-29T06:30:03;10.52;;;6.32;;
54372;SDS011;40271;48.798;10.178;2022-07-29T06:32:31;7.03;;;5.65;;
54372;SDS011;40271;48.798;10.178;2022-07-29T06:34:57;9.38;;;6.15;;
54372;SDS011;40271;48.798;10.178;2022-07-29T06:37:23;8.60;;;5.97;;
54372;SDS011;40271;48.798;10.178;2022-07-29T06:39:49;8.80;;;6.53;;
54372;SDS011;40271;48.798;10.178;2022-07-29T06:42:42;9.20;;;6.95;;
54372;SDS011;40271;48.798;10.178;2022-07-29T06:45:10;8.68;;;6.65;;
54372;SDS011;40271;48.798;10.178;2022-07-29T06:47:36;8.52;;;6.20;;
54372;SDS011;40271;48.798;10.178;2022-07-29T06:50:02;8.27;;;5.65;;
54372;SDS011;40271;48.798;10.178;2022-07-29T06:52:28;9.70;;;6.15;;
54372;SDS011;40271;48.798;10.178;2022-07-29T06:54:54;8.55;;;6.40;;
54372;SDS011;40271;48.798;10.178;2022-07-29T06:57:21;7.97;;;6.45;;
54372;SDS011;40271;48.798;10.178;2022-07-29T06:59:47;7.88;;;6.40;;
54372;SDS011;40271;48.798;10.178;2022-07-29T07:02:13;7.93;;;6.72;;
54372;SDS011;40271;48.798;10.178;2022-07-29T07:04:39;8.90;;;6.60;;
54372;SDS011;40271;48.798;10.178;2022-07-29T07:07:05;9.90;;;6.45;;
54372;SDS011;40271;48.798;10.178;2022-07-29T07:09:31;8.05;;;5.80;;
54372;SDS011;40271;48.798;10.178;2022-07-29T07:11:57;8.52;;;6.00;;
54372;SDS011;40271;48.798;10.178;2022-07-29T07:14:23;8.23;;;6.60;;
54372;SDS011;40271;48.798;10.178;2022-07-29T07:16:51;8.68;;;6.57;;
54372;SDS011;40271;48.798;10.178;2022-07-29T07:19:17;7.97;;;6.13;;
54372;SDS011;40271;48.798;10.178;2022-07-29T07:21:44;9.73;;;6.22;;
54372;SDS011;40271;48.798;10.178;2022-07-29T07:24:10;10.75;;;6.72;;
54372;SDS011;40271;48.798;10.178;2022-07-29T07:26:36;10.10;;;6.78;;
54372;SDS011;40271;48.798;10.178;2022-07-29T07:29:04;10.57;;;6.95;;
54372;SDS011;40271;48.798;10.178;2022-07-29T07:31:30;11.15;;;6.93;;
54372;SDS011;40271;48.798;10.178;2022-07-29T07:33:56;10.45;;;7.05;;
54372;SDS011;40271;48.798;10.178;2022-07-29T07:36:22;9.60;;;7.32;;
54372;SDS011;40271;48.798;10.178;2022-07-29T07:38:48;9.60;;;6.97;;
54372;SDS011;40271;48.798;10.178;2022-07-29T07:41:15;12.65;;;7.00;;
54372;SDS011;40271;48.798;10.178;2022-07-29T07:43:41;10.50;;;7.10;;
54372;SDS011;40271;48.798;10.178;2022-07-29T07:46:07;11.38;;;6.88;;
54372;SDS011;40271;48.798;10.178;2022-07-29T07:48:33;7.75;;;6.22;;
54372;SDS011;40271;48.798;10.178;2022-07-29T07:50:59;10.60;;;6.47;;
54372;SDS011;40271;48.798;10.178;2022-07-29T07:53:26;10.18;;;6.95;;
54372;SDS011;40271;48.798;10.178;2022-07-29T07:55:54;10.23;;;6.47;;
54372;SDS011;40271;48.798;10.178;2022-07-29T07:58:20;9.43;;;6.50;;
54372;SDS011;40271;48.798;10.178;2022-07-29T08:00:46;12.82;;;6.20;;
54372;SDS011;40271;48.798;10.178;2022-07-29T08:03:12;8.68;;;6.03;;
54372;SDS011;40271;48.798;10.178;2022-07-29T08:05:41;11.52;;;6.53;;
54372;SDS011;40271;48.798;10.178;2022-07-29T08:08:07;12.23;;;6.35;;
54372;SDS011;40271;48.798;10.178;2022-07-29T08:10:34;9.82;;;5.78;;
54372;SDS011;40271;48.798;10.178;2022-07-29T08:13:19;13.55;;;5.15;;
54372;SDS011;40271;48.798;10.178;2022-07-29T08:15:45;8.90;;;5.35;;
54372;SDS011;40271;48.798;10.178;2022-07-29T08:18:12;8.10;;;5.43;;
54372;SDS011;40271;48.798;10.178;2022-07-29T08:20:38;7.85;;;5.03;;
54372;SDS011;40271;48.798;10.178;2022-07-29T08:23:06;5.90;;;4.40;;
54372;SDS011;40271;48.798;10.178;2022-07-29T08:25:33;6.45;;;4.28;;
54372;SDS011;40271;48.798;10.178;2022-07-29T08:28:00;6.97;;;4.45;;
54372;SDS011;40271;48.798;10.178;2022-07-29T08:30:26;6.07;;;4.32;;
54372;SDS011;40271;48.798;10.178;2022-07-29T08:32:53;5.00;;;4.20;;
54372;SDS011;40271;48.798;10.178;2022-07-29T08:35:19;4.40;;;3.60;;
54372;SDS011;40271;48.798;10.178;2022-07-29T08:37:46;4.50;;;3.70;;
54372;SDS011;40271;48.798;10.178;2022-07-29T08:40:12;3.00;;;2.70;;
54372;SDS011;40271;48.798;10.178;2022-07-29T08:42:39;3.85;;;3.13;;
54372;SDS011;40271;48.798;10.178;2022-07-29T08:45:05;4.30;;;3.17;;
54372;SDS011;40271;48.798;10.178;2022-07-29T08:47:31;4.75;;;3.60;;
54372;SDS011;40271;48.798;10.178;2022-07-29T08:50:01;3.42;;;3.10;;
54372;SDS011;40271;48.798;10.178;2022-07-29T08:52:27;5.15;;;3.30;;
54372;SDS011;40271;48.798;10.178;2022-07-29T08:54:53;3.33;;;2.80;;
54372;SDS011;40271;48.798;10.178;2022-07-29T08:57:20;3.58;;;2.90;;
54372;SDS011;40271;48.798;10.178;2022-07-29T08:59:47;3.33;;;2.55;;
54372;SDS011;40271;48.798;10.178;2022-07-29T09:02:18;3.65;;;2.58;;
54372;SDS011;40271;48.798;10.178;2022-07-29T09:04:44;4.03;;;2.90;;
54372;SDS011;40271;48.798;10.178;2022-07-29T09:07:10;4.28;;;2.90;;
54372;SDS011;40271;48.798;10.178;2022-07-29T09:09:40;3.43;;;2.93;;
54372;SDS011;40271;48.798;10.178;2022-07-29T09:12:06;3.75;;;2.70;;
54372;SDS011;40271;48.798;10.178;2022-07-29T09:14:33;4.03;;;3.00;;
54372;SDS011;40271;48.798;10.178;2022-07-29T09:16:59;4.72;;;3.13;;
54372;SDS011;40271;48.798;10.178;2022-07-29T09:19:33;3.45;;;3.15;;
54372;SDS011;40271;48.798;10.178;2022-07-29T09:22:03;4.10;;;3.45;;
54372;SDS011;40271;48.798;10.178;2022-07-29T09:26:59;4.07;;;3.20;;
54372;SDS011;40271;48.798;10.178;2022-07-29T09:29:25;5.10;;;3.40;;
54372;SDS011;40271;48.798;10.178;2022-07-29T09:31:52;4.45;;;3.70;;
54372;SDS011;40271;48.798;10.178;2022-07-29T09:34:22;4.32;;;3.70;;
54372;SDS011;40271;48.798;10.178;2022-07-29T09:39:15;3.65;;;3.35;;
54372;SDS011;40271;48.798;10.178;2022-07-29T09:41:48;4.07;;;3.63;;
54372;SDS011;40271;48.798;10.178;2022-07-29T09:44:14;5.15;;;3.65;;
54372;SDS011;40271;48.798;10.178;2022-07-29T09:46:52;4.82;;;4.38;;
54372;SDS011;40271;48.798;10.178;2022-07-29T09:49:18;4.38;;;3.85;;
54372;SDS011;40271;48.798;10.178;2022-07-29T09:51:44;4.57;;;4.13;;
54372;SDS011;40271;48.798;10.178;2022-07-29T09:56:48;4.60;;;4.00;;
54372;SDS011;40271;48.798;10.178;2022-07-29T09:59:14;6.68;;;4.55;;
54372;SDS011;40271;48.798;10.178;2022-07-29T10:01:41;5.28;;;4.05;;
54372;SDS011;40271;48.798;10.178;2022-07-29T10:04:07;5.68;;;4.20;;
54372;SDS011;40271;48.798;10.178;2022-07-29T10:06:33;4.82;;;3.80;;
54372;SDS011;40271;48.798;10.178;2022-07-29T10:09:09;4.45;;;4.05;;
54372;SDS011;40271;48.798;10.178;2022-07-29T10:11:35;4.25;;;3.78;;
54372;SDS011;40271;48.798;10.178;2022-07-29T10:14:02;4.65;;;4.22;;
54372;SDS011;40271;48.798;10.178;2022-07-29T10:16:29;5.07;;;4.43;;
54372;SDS011;40271;48.798;10.178;2022-07-29T10:18:58;4.50;;;4.10;;
54372;SDS011;40271;48.798;10.178;2022-07-29T10:21:27;4.72;;;4.10;;
54372;SDS011;40271;48.798;10.178;2022-07-29T10:23:53;5.18;;;4.38;;
54372;SDS011;40271;48.798;10.178;2022-07-29T10:26:19;4.38;;;4.00;;
54372;SDS011;40271;48.798;10.178;2022-07-29T10:28:45;5.18;;;4.20;;
54372;SDS011;40271;48.798;10.178;2022-07-29T10:31:15;4.90;;;4.40;;
54372;SDS011;40271;48.798;10.178;2022-07-29T10:33:51;4.60;;;3.90;;
54372;SDS011;40271;48.798;10.178;2022-07-29T10:39:48;4.78;;;4.35;;
54372;SDS011;40271;48.798;10.178;2022-07-29T10:44:21;6.07;;;3.97;;
54372;SDS011;40271;48.798;10.178;2022-07-29T10:46:47;4.43;;;4.03;;
54372;SDS011;40271;48.798;10.178;2022-07-29T10:54:36;4.65;;;3.90;;
54372;SDS011;40271;48.798;10.178;2022-07-29T10:57:16;6.07;;;4.18;;
54372;SDS011;40271;48.798;10.178;2022-07-29T10:59:44;4.30;;;3.80;;
54372;SDS011;40271;48.798;10.178;2022-07-29T11:07:21;4.63;;;3.97;;
54372;SDS011;40271;48.798;10.178;2022-07-29T11:15:05;5.57;;;3.90;;
54372;SDS011;40271;48.798;10.178;2022-07-29T11:23:48;4.82;;;3.88;;
54372;SDS011;40271;48.798;10.178;2022-07-29T11:28:33;5.47;;;3.88;;
54372;SDS011;40271;48.798;10.178;2022-07-29T11:31:00;4.25;;;3.40;;
54372;SDS011;40271;48.798;10.178;2022-07-29T11:33:28;3.75;;;3.45;;
54372;SDS011;40271;48.798;10.178;2022-07-29T11:36:27;3.83;;;3.22;;
54372;SDS011;40271;48.798;10.178;2022-07-29T11:38:46;4.28;;;3.42;;
54372;SDS011;40271;48.798;10.178;2022-07-29T11:41:25;6.38;;;4.85;;
54372;SDS011;40271;48.798;10.178;2022-07-29T11:43:52;6.13;;;5.32;;
54372;SDS011;40271;48.798;10.178;2022-07-29T11:47:00;6.10;;;5.50;;
54372;SDS011;40271;48.798;10.178;2022-07-29T11:49:07;6.75;;;4.47;;
54372;SDS011;40271;48.798;10.178;2022-07-29T11:51:37;5.78;;;4.47;;
54372;SDS011;40271;48.798;10.178;2022-07-29T11:54:04;3.70;;;3.40;;
54372;SDS011;40271;48.798;10.178;2022-07-29T11:56:33;3.42;;;3.13;;
54372;SDS011;40271;48.798;10.178;2022-07-29T11:59:06;4.63;;;3.00;;
54372;SDS011;40271;48.798;10.178;2022-07-29T12:01:34;3.95;;;2.90;;
54372;SDS011;40271;48.798;10.178;2022-07-29T12:04:06;3.53;;;2.88;;
54372;SDS011;40271;48.798;10.178;2022-07-29T12:06:33;3.15;;;2.55;;
54372;SDS011;40271;48.798;10.178;2022-07-29T12:08:59;3.03;;;2.72;;
54372;SDS011;40271;48.798;10.178;2022-07-29T12:11:25;4.15;;;2.67;;
54372;SDS011;40271;48.798;10.178;2022-07-29T12:13:52;4.15;;;2.95;;
54372;SDS011;40271;48.798;10.178;2022-07-29T12:16:19;2.97;;;2.45;;
54372;SDS011;40271;48.798;10.178;2022-07-29T12:18:58;3.15;;;2.65;;
54372;SDS011;40271;48.798;10.178;2022-07-29T12:21:24;3.97;;;2.67;;
54372;SDS011;40271;48.798;10.178;2022-07-29T12:23:54;2.58;;;2.15;;
54372;SDS011;40271;48.798;10.178;2022-07-29T12:26:20;4.63;;;2.10;;
54372;SDS011;40271;48.798;10.178;2022-07-29T12:28:46;3.30;;;2.00;;
54372;SDS011;40271;48.798;10.178;2022-07-29T12:31:13;3.30;;;1.80;;
54372;SDS011;40271;48.798;10.178;2022-07-29T12:33:39;4.47;;;2.08;;
54372;SDS011;40271;48.798;10.178;2022-07-29T12:36:05;3.00;;;2.20;;
54372;SDS011;40271;48.798;10.178;2022-07-29T12:38:33;3.10;;;1.77;;
54372;SDS011;40271;48.798;10.178;2022-07-29T12:40:59;2.85;;;1.80;;
54372;SDS011;40271;48.798;10.178;2022-07-29T12:43:25;2.67;;;1.50;;
54372;SDS011;40271;48.798;10.178;2022-07-29T12:45:56;2.00;;;1.65;;
54372;SDS011;40271;48.798;10.178;2022-07-29T12:48:35;2.38;;;1.80;;
54372;SDS011;40271;48.798;10.178;2022-07-29T12:51:02;2.00;;;1.80;;
54372;SDS011;40271;48.798;10.178;2022-07-29T12:53:28;1.95;;;1.67;;
54372;SDS011;40271;48.798;10.178;2022-07-29T12:55:55;1.70;;;1.60;;
54372;SDS011;40271;48.798;10.178;2022-07-29T12:58:28;2.67;;;1.90;;
54372;SDS011;40271;48.798;10.178;2022-07-29T13:06:26;2.55;;;2.10;;
54372;SDS011;40271;48.798;10.178;2022-07-29T13:09:14;4.15;;;2.35;;
54372;SDS011;40271;48.798;10.178;2022-07-29T13:11:40;4.40;;;2.40;;
54372;SDS011;40271;48.798;10.178;2022-07-29T13:14:07;4.50;;;2.58;;
54372;SDS011;40271;48.798;10.178;2022-07-29T13:16:34;2.70;;;2.50;;
54372;SDS011;40271;48.798;10.178;2022-07-29T13:19:08;2.33;;;2.13;;
54372;SDS011;40271;48.798;10.178;2022-07-29T13:21:35;3.42;;;2.40;;
54372;SDS011;40271;48.798;10.178;2022-07-29T13:24:01;3.72;;;2.55;;
54372;SDS011;40271;48.798;10.178;2022-07-29T13:26:27;4.57;;;2.60;;
54372;SDS011;40271;48.798;10.178;2022-07-29T13:28:54;3.22;;;2.60;;
54372;SDS011;40271;48.798;10.178;2022-07-29T13:31:20;2.80;;;2.60;;
54372;SDS011;40271;48.798;10.178;2022-07-29T13:33:47;2.80;;;2.53;;
54372;SDS011;40271;48.798;10.178;2022-07-29T13:36:13;3.13;;;2.40;;
54372;SDS011;40271;48.798;10.178;2022-07-29T13:38:39;3.08;;;2.78;;
54372;SDS011;40271;48.798;10.178;2022-07-29T13:41:05;2.90;;;2.47;;
54372;SDS011;40271;48.798;10.178;2022-07-29T13:43:31;3.30;;;3.00;;
54372;SDS011;40271;48.798;10.178;2022-07-29T13:45:57;4.38;;;2.65;;
54372;SDS011;40271;48.798;10.178;2022-07-29T13:48:23;4.25;;;2.90;;
54372;SDS011;40271;48.798;10.178;2022-07-29T13:50:49;3.28;;;2.80;;
54372;SDS011;40271;48.798;10.178;2022-07-29T13:53:15;5.75;;;3.10;;
54372;SDS011;40271;48.798;10.178;2022-07-29T13:55:41;5.05;;;3.40;;
54372;SDS011;40271;48.798;10.178;2022-07-29T13:58:07;5.05;;;2.97;;
54372;SDS011;40271;48.798;10.178;2022-07-29T14:00:33;4.63;;;3.33;;
54372;SDS011;40271;48.798;10.178;2022-07-29T14:02:59;4.07;;;3.50;;
54372;SDS011;40271;48.798;10.178;2022-07-29T14:05:25;3.85;;;3.47;;
54372;SDS011;40271;48.798;10.178;2022-07-29T14:07:51;5.25;;;3.70;;
54372;SDS011;40271;48.798;10.178;2022-07-29T14:10:17;5.55;;;3.85;;
54372;SDS011;40271;48.798;10.178;2022-07-29T14:12:43;5.75;;;3.88;;
54372;SDS011;40271;48.798;10.178;2022-07-29T14:15:10;3.95;;;3.53;;
54372;SDS011;40271;48.798;10.178;2022-07-29T14:17:36;3.47;;;3.17;;
54372;SDS011;40271;48.798;10.178;2022-07-29T14:20:02;5.80;;;3.55;;
54372;SDS011;40271;48.798;10.178;2022-07-29T14:22:28;4.07;;;3.10;;
54372;SDS011;40271;48.798;10.178;2022-07-29T14:24:54;4.70;;;2.90;;
54372;SDS011;40271;48.798;10.178;2022-07-29T14:27:20;3.72;;;3.13;;
54372;SDS011;40271;48.798;10.178;2022-07-29T14:29:46;5.60;;;3.92;;
54372;SDS011;40271;48.798;10.178;2022-07-29T14:32:12;3.05;;;2.60;;
54372;SDS011;40271;48.798;10.178;2022-07-29T14:34:39;3.60;;;3.30;;
54372;SDS011;40271;48.798;10.178;2022-07-29T14:37:06;3.38;;;2.95;;
54372;SDS011;40271;48.798;10.178;2022-07-29T14:39:33;3.58;;;3.10;;
54372;SDS011;40271;48.798;10.178;2022-07-29T14:42:00;3.95;;;3.40;;
54372;SDS011;40271;48.798;10.178;2022-07-29T14:44:26;4.03;;;3.25;;
54372;SDS011;40271;48.798;10.178;2022-07-29T14:46:56;4.95;;;3.97;;
54372;SDS011;40271;48.798;10.178;2022-07-29T14:49:22;4.97;;;3.80;;
54372;SDS011;40271;48.798;10.178;2022-07-29T14:51:48;4.70;;;3.95;;
54372;SDS011;40271;48.798;10.178;2022-07-29T14:54:15;3.80;;;3.50;;
54372;SDS011;40271;48.798;10.178;2022-07-29T14:56:41;4.22;;;3.60;;
54372;SDS011;40271;48.798;10.178;2022-07-29T14:59:07;4.45;;;3.55;;
54372;SDS011;40271;48.798;10.178;2022-07-29T15:01:33;4.20;;;3.67;;
54372;SDS011;40271;48.798;10.178;2022-07-29T15:03:59;4.22;;;3.78;;
54372;SDS011;40271;48.798;10.178;2022-07-29T15:06:25;4.70;;;3.63;;
54372;SDS011;40271;48.798;10.178;2022-07-29T15:08:51;3.88;;;3.55;;
54372;SDS011;40271;48.798;10.178;2022-07-29T15:11:17;5.78;;;3.53;;
54372;SDS011;40271;48.798;10.178;2022-07-29T15:13:43;4.75;;;3.53;;
54372;SDS011;40271;48.798;10.178;2022-07-29T15:16:09;3.85;;;3.50;;
54372;SDS011;40271;48.798;10.178;2022-07-29T15:18:35;5.40;;;3.70;;
54372;SDS011;40271;48.798;10.178;2022-07-29T15:21:03;3.67;;;3.35;;
54372;SDS011;40271;48.798;10.178;2022-07-29T15:23:31;3.70;;;3.40;;
54372;SDS011;40271;48.798;10.178;2022-07-29T15:25:57;3.80;;;3.10;;
54372;SDS011;40271;48.798;10.178;2022-07-29T15:28:23;3.42;;;3.10;;
54372;SDS011;40271;48.798;10.178;2022-07-29T15:30:49;3.55;;;3.17;;